Data for 06/30/2009

Time Sea-Level Adjusted Pressure Absolute Pressure Temperature Relative Humidity Dew Point   
(mb) (inHg) (mb) (inHg) (C) (F) (%) (C) (F)
00:05 1017 30.03 846 24.98 17.5 63.5 48 6.5 43.7
00:10 1017 30.03 846 24.98 17.1 62.8 48 6.1 42.9
00:15 1017 30.03 846 24.98 17.1 62.7 47 5.7 42.3
00:20 1017 30.03 846 24.98 16.9 62.3 49 6.3 43.4
00:25 1017 30.03 846 24.98 16.8 62.2 48 5.7 42.3
00:30 1017 30.03 846 24.98 17.1 62.8 46 5.6 42.1
00:35 1017 30.03 846 24.98 17.7 63.8 44 5.4 41.7
00:40 1017 30.03 846 24.98 18.2 64.7 43 5.4 41.8
00:45 1017 30.03 846 24.98 18.5 65.3 41 5.2 41.4
00:50 1017 30.03 846 24.98 18.6 65.4 42 5.4 41.8
00:55 1017 30.03 846 24.98 18.3 64.9 43 5.7 42.2
01:00 1017 30.03 846 24.98 18 64.5 45 5.9 42.6
01:05 1017 30.03 846 24.98 17.9 64.2 46 6.1 43
01:10 1017 30.03 846 24.98 17.8 64 46 6 42.9
01:15 1017 30.03 846 24.98 17.8 64.1 45 5.8 42.5
01:20 1017 30.03 846 24.98 17.7 63.9 46 6.1 43
01:25 1017 30.03 846 24.98 17.5 63.5 46 5.8 42.5
01:30 1017 30.03 846 24.98 17.7 63.8 45 5.6 42.1
01:35 1016 30 846 24.98 17.9 64.1 44 5.6 42
01:40 1016 30 846 24.98 17.9 64.2 44 5.7 42.2
01:45 1017 30.03 846 24.98 17.8 64 45 5.7 42.3
01:50 1016 30 846 24.98 17.7 63.8 45 5.6 42.1
01:55 1016 30 846 24.98 17.5 63.5 45 5.7 42.3
02:00 1016 30 846 24.98 17.2 63 47 6 42.8
02:05 1016 30 846 24.98 17 62.5 49 6.4 43.5
02:10 1016 30 846 24.98 16.6 61.9 49 5.9 42.7
02:15 1016 30 846 24.98 16.6 62 51 6.6 43.9
02:20 1016 30 846 24.98 16.4 61.4 52 6.5 43.7
02:25 1016 30 846 24.98 16 60.8 52 6.4 43.5
02:30 1016 30 846 24.98 15.9 60.5 52 6 42.8
02:35 1016 30 846 24.98 15.6 60.1 54 6.5 43.7
02:40 1016 30 846 24.98 15.4 59.7 53 5.9 42.7
02:45 1016 30 846 24.98 15.5 59.9 54 6.2 43.2
02:50 1016 30 846 24.98 15.1 59.2 56 6.4 43.6
02:55 1017 30.03 846 24.98 14.9 58.7 57 6.4 43.6
03:00 1017 30.03 846 24.98 14.8 58.6 56 6.1 42.9
03:05 1017 30.03 846 24.98 14.7 58.5 55 5.9 42.6
03:10 1017 30.03 846 24.98 14.6 58.3 54 5.6 42.1
03:15 1017 30.03 846 24.98 14.6 58.2 55 5.7 42.3
03:20 1017 30.03 846 24.98 14.8 58.6 54 5.7 42.3
03:25 1017 30.03 846 24.98 14.9 58.7 56 6.1 43.1
03:30 1017 30.03 846 24.98 14.5 58.1 56 5.8 42.5
03:35 1017 30.03 846 24.98 14.5 58.1 55 5.6 42.1
03:40 1017 30.03 846 24.98 14.5 58.2 56 5.9 42.6
03:45 1017 30.03 846 24.98 14.5 58.1 56 5.9 42.6
03:50 1017 30.03 846 24.98 14.6 58.2 56 6 42.8
03:55 1017 30.03 846 24.98 14.5 58 57 6.2 43.2
04:00 1017 30.03 846 24.98 14.2 57.5 58 6.2 43.2
04:05 1017 30.03 846 24.98 14.1 57.4 58 6 42.8
04:10 1017 30.03 846 24.98 14.1 57.4 58 6.1 42.9
04:15 1017 30.03 846 24.98 14.2 57.6 58 6.1 43
04:20 1017 30.03 846 24.98 14 57.3 59 6.3 43.3
04:25 1017 30.03 846 24.98 13.8 56.9 60 6.3 43.4
04:30 1017 30.03 846 24.98 14 57.1 58 6 42.7
04:35 1017 30.03 846 24.98 14.1 57.4 59 6.3 43.3
04:40 1017 30.03 846 24.98 13.6 56.6 61 6.3 43.4
04:45 1017 30.03 846 24.98 13.5 56.2 61 6.2 43.1
04:50 1017 30.03 846 24.98 13.5 56.3 61 6.3 43.3
04:55 1017 30.03 846 24.98 13.3 56 62 6.4 43.4
05:00 1017 30.03 846 24.98 13.1 55.5 63 6.2 43.2
05:05 1017 30.03 846 24.98 13.3 55.9 61 5.9 42.6
05:10 1017 30.03 846 24.98 13.4 56.2 60 5.9 42.6
05:15 1017 30.03 846 24.98 13.3 55.9 61 6 42.7
05:20 1017 30.03 847 25.01 13.3 55.9 61 5.9 42.6
05:25 1018 30.06 847 25.01 12.9 55.3 61 5.8 42.4
05:30 1017 30.03 847 25.01 12.5 54.4 63 5.8 42.4
05:35 1017 30.03 846 24.98 12.1 53.7 63 5.3 41.6
05:40 1017 30.03 847 25.01 12.3 54.1 62 5.2 41.4
05:45 1018 30.06 847 25.01 12.8 55.1 61 5.5 41.8
05:50 1018 30.06 847 25.01 12.5 54.6 62 5.5 41.8
05:55 1018 30.06 847 25.01 12.5 54.5 61 5.3 41.6
06:00 1018 30.06 847 25.01 12.5 54.4 62 5.5 41.9
06:05 1018 30.06 847 25.01 12.4 54.4 63 5.6 42.1
06:10 1018 30.06 847 25.01 12.5 54.6 62 5.5 41.8
06:15 1018 30.06 847 25.01 12.6 54.6 63 5.7 42.3
06:20 1018 30.06 847 25.01 12.8 55.1 62 5.8 42.5
06:25 1018 30.06 847 25.01 12.7 54.8 65 6.3 43.4
06:30 1018 30.06 847 25.01 12.5 54.4 66 6.4 43.6
06:35 1017 30.03 847 25.01 12.4 54.4 67 6.4 43.6
06:40 1017 30.03 847 25.01 12.6 54.7 66 6.4 43.6
06:45 1017 30.03 847 25.01 13 55.4 62 5.9 42.7
06:50 1018 30.06 847 25.01 13.5 56.3 60 5.9 42.7
06:55 1018 30.06 847 25.01 13.7 56.6 63 6.7 44
07:00 1018 30.06 847 25.01 13.5 56.2 64 6.8 44.2
07:05 1018 30.06 847 25.01 13.5 56.3 64 6.8 44.3
07:10 1018 30.06 847 25.01 13.5 56.3 64 7 44.5
07:15 1018 30.06 847 25.01 13.9 57 59 6 42.8
07:20 1018 30.06 847 25.01 14.4 57.8 58 6.4 43.5
07:25 1018 30.06 847 25.01 14.6 58.3 58 6.5 43.7
07:30 1018 30.06 847 25.01 15.1 59.3 56 6.4 43.6
07:35 1018 30.06 847 25.01 15.7 60.3 53 6.1 43.1
07:40 1018 30.06 847 25.01 16.1 60.9 53 6.6 43.9
07:45 1018 30.06 847 25.01 16.2 61.1 52 6.4 43.6
07:50 1018 30.06 847 25.01 16.7 62 52 6.9 44.5
07:55 1018 30.06 847 25.01 16.8 62.2 52 7 44.5
08:00 1018 30.06 847 25.01 16.9 62.4 53 7.3 45.1
08:05 1018 30.06 847 25.01 17.1 62.8 52 7.3 45.1
08:10 1018 30.06 847 25.01 17.4 63.2 50 6.8 44.3
08:15 1018 30.06 847 25.01 17.9 64.2 49 7.1 44.8
08:20 1018 30.06 847 25.01 17.8 64.1 50 7.3 45.2
08:25 1018 30.06 847 25.01 18 64.4 50 7.5 45.4
08:30 1018 30.06 847 25.01 18.8 65.8 48 7.6 45.7
08:35 1018 30.06 847 25.01 18.8 65.8 47 7.4 45.3
08:40 1018 30.06 847 25.01 19.1 66.4 45 7.1 44.8
08:45 1018 30.06 847 25.01 19.8 67.6 44 7.4 45.3
08:50 1018 30.06 847 25.01 19.8 67.6 44 7.5 45.4
08:55 1018 30.06 847 25.01 20.4 68.8 42 7.2 45
09:00 1018 30.06 847 25.01 20.5 68.9 44 8 46.4
09:05 1018 30.06 847 25.01 20.9 69.5 41 7.4 45.3
09:10 1017 30.03 847 25.01 21.4 70.6 40 7.3 45.2
09:15 1017 30.03 847 25.01 21.5 70.6 41 7.9 46.2
09:20 1017 30.03 847 25.01 21.7 71.1 40 7.7 45.9
09:25 1017 30.03 847 25.01 21.7 71 42 8.5 47.3
09:30 1017 30.03 847 25.01 21.9 71.4 43 8.8 47.8
09:35 1017 30.03 846 24.98 21.4 70.6 42 8.2 46.8
09:40 1017 30.03 846 24.98 21.5 70.7 43 8.5 47.3
09:45 1017 30.03 846 24.98 21.6 70.8 43 8.7 47.6
09:50 1017 30.03 846 24.98 21.3 70.4 43 8.4 47.2
09:55 1017 30.03 846 24.98 21.6 71 43 8.7 47.6
10:00 1017 30.03 846 24.98 21.6 70.9 44 9.1 48.3
10:05 1017 30.03 846 24.98 22.1 71.7 42 8.7 47.7
10:10 1017 30.03 846 24.98 23.2 73.7 41 9.5 49
10:15 1017 30.03 846 24.98 23.7 74.6 39 9.3 48.7
10:20 1017 30.03 846 24.98 24 75.3 38 9.2 48.5
10:25 1017 30.03 846 24.98 23.9 75 39 9.4 48.9
10:30 1017 30.03 846 24.98 24.3 75.7 37 8.9 48
10:35 1017 30.03 846 24.98 24.1 75.4 39 9.6 49.2
10:40 1017 30.03 846 24.98 23.8 74.8 39 9.3 48.8
10:45 1017 30.03 846 24.98 23.9 75.1 38 9 48.2
10:50 1017 30.03 846 24.98 23.7 74.6 39 9.1 48.4
10:55 1017 30.03 846 24.98 23.3 74 37 8 46.4
11:00 1017 30.03 846 24.98 24.2 75.6 33 7.1 44.8
11:05 1017 30.03 846 24.98 24.7 76.5 35 8.5 47.4
11:10 1017 30.03 846 24.98 24.6 76.3 36 8.7 47.7
11:15 1017 30.03 846 24.98 24.3 75.7 36 8.5 47.3
11:20 1017 30.03 846 24.98 24.8 76.6 34 8.3 46.9
11:25 1017 30.03 846 24.98 25.1 77.3 33 8 46.4
11:30 1017 30.03 846 24.98 25 77 33 7.7 45.8
11:35 1017 30.03 846 24.98 25.3 77.5 33 8 46.4
11:40 1017 30.03 846 24.98 25.8 78.4 32 8 46.4
11:45 1017 30.03 846 24.98 26.3 79.4 31 8.2 46.7
11:50 1017 30.03 846 24.98 25.8 78.5 33 8.4 47.1
11:55 1017 30.03 846 24.98 25.9 78.6 32 8 46.4
12:00 1017 30.03 846 24.98 26 78.8 33 8.6 47.4
12:05 1017 30.03 846 24.98 26 78.8 32 8.4 47.1
12:10 1017 30.03 846 24.98 26 78.7 33 8.7 47.6
12:15 1017 30.03 846 24.98 26.1 78.9 32 8.3 47
12:20 1017 30.03 846 24.98 26.3 79.3 30 7.5 45.4
12:25 1017 30.03 846 24.98 25.7 78.2 32 7.8 46.1
12:30 1017 30.03 846 24.98 24.6 76.3 32 7.1 44.7
12:35 1017 30.03 846 24.98 25.2 77.4 31 7 44.7
12:40 1017 30.03 846 24.98 25.4 77.7 31 7.1 44.8
12:45 1017 30.03 846 24.98 24.8 76.6 33 7.5 45.5
12:50 1017 30.03 846 24.98 25.5 77.8 29 6.4 43.6
12:55 1017 30.03 846 24.98 26.4 79.5 29 7 44.6
13:00 1017 30.03 846 24.98 26.9 80.4 27 6.4 43.5
13:05 1017 30.03 846 24.98 26.9 80.4 23 4.2 39.5
13:10 1017 30.03 846 24.98 26.8 80.2 25 5.2 41.3
13:15 1017 30.03 846 24.98 27.3 81.2 23 4.9 40.8
13:20 1017 30.03 846 24.98 27.9 82.3 25 6.6 44
13:25 1017 30.03 846 24.98 27.7 81.9 27 7.4 45.4
13:30 1017 30.03 846 24.98 27.3 81.1 27 7.1 44.8
13:35 1016 30 846 24.98 27.9 82.2 27 7.5 45.4
13:40 1016 30 846 24.98 28.1 82.5 28 8 46.5
13:45 1016 30 846 24.98 27.8 82.1 26 6.8 44.3
13:50 1016 30 846 24.98 28.6 83.5 26 7.5 45.6
13:55 1016 30 846 24.98 29.2 84.5 25 7.3 45.1
14:00 1016 30 845 24.95 28.1 82.7 25 6.3 43.4
14:05 1016 30 845 24.95 28.6 83.5 26 7.4 45.2
14:10 1016 30 845 24.95 28.9 84.1 24 6.5 43.6
14:15 1016 30 845 24.95 29 84.2 24 6.8 44.2
14:20 1016 30 845 24.95 28.9 83.9 23 5.9 42.6
14:25 1016 30 845 24.95 28.6 83.5 23 6 42.8
14:30 1016 30 845 24.95 29.5 85.1 21 4.9 40.8
14:35 1016 30 845 24.95 29.9 85.8 20 5 41
14:40 1016 30 845 24.95 29.5 85.1 22 5.6 42.1
14:45 1016 30 845 24.95 29.4 84.9 20 4.3 39.7
14:50 1016 30 845 24.95 30.1 86.1 19 4.6 40.2
14:55 1016 30 845 24.95 29 84.1 20 4 39.2
15:00 1016 30 845 24.95 29.5 85 18 3.1 37.6
15:05 1015 29.97 845 24.95 30.3 86.5 18 4 39.2
15:10 1015 29.97 844 24.92 30.3 86.6 18 3.8 38.9
15:15 1015 29.97 844 24.92 29.6 85.3 20 4.3 39.8
15:20 1015 29.97 844 24.92 29.4 85 18 2.7 36.8
15:25 1015 29.97 844 24.92 29.4 85 17 1.9 35.4
15:30 1015 29.97 844 24.92 30.6 87.1 15 1.9 35.4
15:35 1015 29.97 844 24.92 30.8 87.5 17 3 37.4
15:40 1015 29.97 844 24.92 31.3 88.4 16 2.8 37.1
15:45 1015 29.97 844 24.92 31.4 88.6 15 2.2 35.9
15:50 1015 29.97 844 24.92 31 87.8 17 3.1 37.5
15:55 1015 29.97 844 24.92 30.3 86.5 17 3 37.3
16:00 1015 29.97 844 24.92 29.7 85.4 19 3.6 38.5
16:05 1015 29.97 844 24.92 29.4 84.8 18 3 37.4
16:10 1015 29.97 844 24.92 29.1 84.3 19 3.6 38.5
16:15 1015 29.97 844 24.92 28.2 82.8 20 3.3 38
16:20 1015 29.97 844 24.92 27.9 82.2 19 2.4 36.4
16:25 1015 29.97 844 24.92 28.1 82.5 19 2.9 37.3
16:30 1016 30 845 24.95 27.7 81.8 24 5.4 41.7
16:35 1015 29.97 845 24.95 24.6 76.2 31 6.4 43.5
16:40 1016 30 845 24.95 21.8 71.2 36 6.3 43.3
16:45 1016 30 846 24.98 20.5 68.8 43 7.7 45.9
16:50 1017 30.03 846 24.98 19.1 66.3 54 9.5 49.2
16:55 1017 30.03 846 24.98 18.1 64.5 56 9.3 48.7
17:00 1017 30.03 846 24.98 17.7 63.8 63 10.6 51.2
17:05 1017 30.03 846 24.98 17.5 63.5 60 9.7 49.4
17:10 1016 30 845 24.95 18.3 65 54 9.1 48.4
17:15 1016 30 845 24.95 18.4 65.2 67 12.3 54.2
17:20 1016 30 845 24.95 18.2 64.8 64 11.3 52.4
17:25 1016 30 845 24.95 18 64.4 60 10.3 50.5
17:30 1016 30 845 24.95 19 66.1 60 11.1 51.9
17:35 1016 30 845 24.95 19.8 67.7 58 11.4 52.5
17:40 1016 30 845 24.95 20 68 53 10.2 50.3
17:45 1016 30 845 24.95 20.2 68.4 48 8.9 48
17:50 1016 30 845 24.95 20 68.1 50 9.5 49.1
17:55 1016 30 845 24.95 19.6 67.3 54 10.1 50.3
18:00 1016 30 845 24.95 19.5 67 54 9.9 49.9
18:05 1016 30 845 24.95 19.5 67.1 55 10.3 50.5
18:10 1017 30.03 846 24.98 19.2 66.6 54 9.7 49.5
18:15 1017 30.03 846 24.98 19.1 66.4 57 10.5 50.9
18:20 1017 30.03 847 25.01 19.4 67 49 8.4 47.2
18:25 1017 30.03 847 25.01 19.5 67.1 53 9.8 49.6
18:30 1018 30.06 847 25.01 19 66.2 53 9.4 48.9
18:35 1018 30.06 847 25.01 19.9 67.8 55 10.6 51.2
18:40 1017 30.03 847 25.01 19.2 66.6 50 8.6 47.4
18:45 1017 30.03 846 24.98 19.5 67 53 9.9 49.8
18:50 1016 30 845 24.95 18.4 65.1 58 10 50
18:55 1016 30 846 24.98 18.5 65.4 50 8.1 46.7
19:00 1016 30 846 24.98 18.7 65.7 53 9 48.3
19:05 1016 30 846 24.98 18.9 65.9 54 9.5 49
19:10 1016 30 846 24.98 18.8 65.8 52 8.8 47.8
19:15 1016 30 846 24.98 19 66.2 49 8.1 46.7
19:20 1016 30 846 24.98 19.1 66.3 49 8.3 47
19:25 1016 30 846 24.98 19.4 66.8 50 8.9 48
19:30 1017 30.03 846 24.98 19.3 66.8 52 9.3 48.7
19:35 1017 30.03 846 24.98 19.2 66.5 57 10.4 50.8
19:40 1017 30.03 846 24.98 18.3 65 60 10.5 50.9
19:45 1017 30.03 846 24.98 18.3 64.9 53 8.6 47.6
19:50 1017 30.03 846 24.98 18.8 65.9 52 9 48.2
19:55 1017 30.03 846 24.98 18.7 65.6 53 9.1 48.3
20:00 1017 30.03 846 24.98 18.4 65.1 58 10 49.9
20:05 1017 30.03 846 24.98 18.2 64.7 57 9.5 49.1
20:10 1017 30.03 846 24.98 18 64.5 56 9.2 48.6
20:15 1016 30 846 24.98 18 64.4 55 9 48.2
20:20 1016 30 846 24.98 18 64.4 54 8.6 47.5
20:25 1016 30 846 24.98 18.2 64.7 52 8.4 47.1
20:30 1016 30 845 24.95 18.2 64.8 51 8.1 46.6
20:35 1016 30 845 24.95 18.3 65 51 8 46.4
20:40 1016 30 846 24.98 18.4 65.1 50 7.8 46
20:45 1017 30.03 846 24.98 18.6 65.4 49 7.8 46.1
20:50 1017 30.03 846 24.98 18.5 65.3 51 8.2 46.8
20:55 1017 30.03 846 24.98 18.3 64.9 51 8 46.4
21:00 1017 30.03 846 24.98 18.3 64.9 50 7.8 46.1
21:05 1017 30.03 846 24.98 18.2 64.7 50 7.6 45.7
21:10 1017 30.03 846 24.98 18.1 64.6 50 7.8 46
21:15 1017 30.03 846 24.98 17.9 64.3 52 8.2 46.7
21:20 1017 30.03 846 24.98 17.7 63.9 52 7.9 46.2
21:25 1017 30.03 846 24.98 17.6 63.7 54 8.3 46.9
21:30 1017 30.03 846 24.98 17.4 63.4 53 7.9 46.2
21:35 1017 30.03 846 24.98 17.4 63.2 54 8.1 46.6
21:40 1017 30.03 846 24.98 17.2 63 54 8 46.4
21:45 1017 30.03 847 25.01 17.1 62.7 55 8 46.4
21:50 1017 30.03 847 25.01 17 62.7 56 8.2 46.8
21:55 1017 30.03 847 25.01 16.8 62.3 58 8.6 47.4
22:00 1017 30.03 847 25.01 16.5 61.8 58 8.4 47.2
22:05 1017 30.03 847 25.01 16.3 61.4 59 8.5 47.2
22:10 1017 30.03 847 25.01 16.2 61.2 60 8.5 47.3
22:15 1017 30.03 847 25.01 16.2 61.1 60 8.4 47.1
22:20 1017 30.03 847 25.01 16.1 61 60 8.3 47
22:25 1017 30.03 847 25.01 16 60.8 60 8.4 47.1
22:30 1017 30.03 847 25.01 16 60.7 59 8 46.4
22:35 1018 30.06 847 25.01 16.1 60.9 58 7.8 46
22:40 1018 30.06 847 25.01 16.1 61 60 8.4 47.1
22:45 1018 30.06 847 25.01 15.9 60.6 62 8.7 47.7
22:50 1018 30.06 848 25.04 16 60.8 64 9.2 48.5
22:55 1018 30.06 848 25.04 16 60.8 65 9.5 49.1
23:00 1018 30.06 847 25.01 15.8 60.4 65 9.4 48.9
23:05 1017 30.03 846 24.98 15.6 60 63 8.6 47.5
23:10 1017 30.03 846 24.98 15.7 60.3 61 8.2 46.8
23:15 1017 30.03 846 24.98 15.9 60.6 60 8.3 47
23:20 1017 30.03 846 24.98 16.2 61.2 59 8.2 46.8
23:25 1017 30.03 846 24.98 16.4 61.5 57 8 46.4
23:30 1017 30.03 847 25.01 16.2 61.2 59 8.3 46.9
23:35 1017 30.03 847 25.01 15.9 60.7 60 8.3 46.9
23:40 1018 30.06 847 25.01 15.7 60.2 62 8.4 47.2
23:45 1018 30.06 847 25.01 15.5 60 61 8.2 46.7
23:50 1017 30.03 847 25.01 15.7 60.3 59 7.9 46.2
23:55 1017 30.03 847 25.01 15.8 60.5 65 9.4 48.9
24:00 1017 30.03 847 25.01 15.6 60.1 64 8.8 47.9